Time;durP1;ratioP1;P1;durP2;ratioP2;P2;SDS_P1;SDS_P2;PMS_P1;PMS_P2;Temp;Humidity;BMP_temperature;BMP_pressure;BME280_temperature;BME280_humidity;BME280_pressure;Samples;Min_cycle;Max_cycle;Signal;HPM_P1;HPM_P2
2022/05/23 00:00:47;;;;;;;2.67;2.47;;;15.80;99.90;;;;;;5032908;28;20424;-76
2022/05/23 00:03:12;;;;;;;3.30;3.07;;;15.80;99.90;;;;;;5033132;28;20186;-77
2022/05/23 00:05:39;;;;;;;2.80;2.60;;;15.80;99.90;;;;;;5033093;28;20340;-75
2022/05/23 00:08:05;;;;;;;2.70;2.50;;;15.80;99.90;;;;;;5032988;28;20682;-76
2022/05/23 00:10:30;;;;;;;2.60;2.40;;;15.80;99.90;;;;;;5033095;28;20456;-75
2022/05/23 00:12:56;;;;;;;3.93;2.53;;;15.80;99.90;;;;;;5033265;28;20436;-76
2022/05/23 00:15:21;;;;;;;5.30;2.07;;;15.70;99.90;;;;;;5032997;28;20280;-76
2022/05/23 00:17:47;;;;;;;3.10;2.50;;;15.60;99.90;;;;;;5033287;28;20220;-76
2022/05/23 00:20:15;;;;;;;3.53;2.57;;;15.60;99.90;;;;;;5032925;28;20182;-75
2022/05/23 00:22:41;;;;;;;3.00;2.40;;;15.60;99.90;;;;;;5032582;28;20193;-75
2022/05/23 00:25:09;;;;;;;11.00;2.63;;;15.50;99.90;;;;;;5033267;28;20870;-75
2022/05/23 00:27:37;;;;;;;3.00;2.33;;;15.50;99.90;;;;;;5032761;28;20178;-76
2022/05/23 00:30:05;;;;;;;2.17;2.03;;;15.50;99.90;;;;;;5032646;28;20435;-75
2022/05/23 00:35:18;;;;;;;3.73;2.53;;;15.40;99.90;;;;;;5032308;28;20412;-75
2022/05/23 00:37:44;;;;;;;2.40;2.20;;;15.40;99.90;;;;;;5032793;28;20992;-76
2022/05/23 00:40:32;;;;;;;3.30;3.00;;;15.40;99.90;;;;;;5032273;28;20416;-75
2022/05/23 00:43:15;;;;;;;2.20;2.10;;;15.30;99.90;;;;;;5030979;28;20440;-75
2022/05/23 00:46:04;;;;;;;2.60;2.37;;;15.30;99.90;;;;;;5032596;28;20916;-77
2022/05/23 00:48:31;;;;;;;2.43;2.33;;;15.20;99.90;;;;;;5032349;28;20405;-76
2022/05/23 00:51:00;;;;;;;2.17;2.03;;;15.20;99.90;;;;;;5031885;28;20460;-75
2022/05/23 00:53:40;;;;;;;6.60;2.80;;;15.10;99.90;;;;;;5032073;28;20495;-76
2022/05/23 00:56:08;;;;;;;3.97;2.63;;;15.10;99.90;;;;;;5032523;28;20405;-76
2022/05/23 00:58:39;;;;;;;2.60;2.50;;;15.10;99.90;;;;;;5032827;28;20440;-75
2022/05/23 02:31:42;;;;;;;3.57;2.60;;;14.10;99.90;;;;;;5708326;22;20906;-74
2022/05/23 02:34:10;;;;;;;3.20;3.00;;;14.00;99.90;;;;;;5000302;28;20416;-74
2022/05/23 02:36:35;;;;;;;2.80;2.60;;;14.00;99.90;;;;;;4997274;28;20175;-76
2022/05/23 02:39:02;;;;;;;3.03;2.43;;;14.00;99.90;;;;;;5011442;28;20428;-76
2022/05/23 02:41:27;;;;;;;2.80;2.60;;;14.00;99.90;;;;;;5011091;28;20315;-75
2022/05/23 02:43:53;;;;;;;3.37;3.10;;;14.00;99.90;;;;;;5011668;28;20532;-75
2022/05/23 02:46:19;;;;;;;4.53;2.90;;;14.00;99.90;;;;;;5014854;28;20265;-75
2022/05/23 02:48:44;;;;;;;2.87;2.67;;;13.90;99.90;;;;;;5014888;28;20183;-76
2022/05/23 02:51:10;;;;;;;3.90;2.93;;;14.00;99.90;;;;;;5014639;28;20488;-76
2022/05/23 02:53:35;;;;;;;3.50;2.90;;;13.90;99.90;;;;;;5014875;28;20179;-77
2022/05/23 02:56:01;;;;;;;6.37;3.57;;;13.90;99.90;;;;;;5014784;28;20179;-76
2022/05/23 02:58:26;;;;;;;4.40;3.27;;;13.90;99.90;;;;;;5014742;28;20675;-76
2022/05/23 03:00:52;;;;;;;3.50;3.00;;;13.90;99.90;;;;;;5013194;28;20218;-77
2022/05/23 03:03:18;;;;;;;3.73;3.10;;;13.90;99.90;;;;;;5015017;28;20182;-76
2022/05/23 03:05:46;;;;;;;2.80;2.60;;;13.90;99.90;;;;;;5014794;28;20197;-77
2022/05/23 03:08:15;;;;;;;3.17;2.93;;;14.00;99.90;;;;;;5015193;28;20222;-76
2022/05/23 03:10:41;;;;;;;4.10;3.07;;;14.00;99.90;;;;;;5015789;28;20461;-75
2022/05/23 03:13:07;;;;;;;2.53;2.33;;;14.00;99.90;;;;;;5016026;28;20440;-76
2022/05/23 03:15:33;;;;;;;5.07;2.93;;;14.00;99.90;;;;;;5015149;28;20179;-76
2022/05/23 03:17:59;;;;;;;5.70;2.97;;;14.00;99.90;;;;;;5015774;28;20171;-76
2022/05/23 03:20:26;;;;;;;3.23;3.03;;;14.10;99.90;;;;;;5015535;28;20497;-74
2022/05/23 03:28:20;;;;;;;3.90;3.40;;;14.20;99.90;;;;;;5015082;28;20776;-76
2022/05/23 03:30:46;;;;;;;3.53;3.23;;;14.20;99.90;;;;;;5014467;28;20544;-75
2022/05/23 03:33:12;;;;;;;3.77;3.20;;;14.20;99.90;;;;;;5014711;28;20187;-76
2022/05/23 03:35:39;;;;;;;4.40;3.20;;;14.30;99.90;;;;;;5014742;28;20863;-76
2022/05/23 03:38:05;;;;;;;3.80;2.90;;;14.20;99.90;;;;;;5014393;28;20414;-76
2022/05/23 03:40:32;;;;;;;8.90;3.23;;;14.30;99.90;;;;;;5013937;28;20421;-76
2022/05/23 03:42:58;;;;;;;3.73;3.20;;;14.30;99.90;;;;;;5014359;28;20468;-76
2022/05/23 03:45:24;;;;;;;4.77;3.33;;;14.30;99.90;;;;;;5014188;28;20460;-77
2022/05/23 03:47:51;;;;;;;4.77;3.77;;;14.30;99.90;;;;;;5013923;28;20444;-75
2022/05/23 03:50:18;;;;;;;3.00;2.80;;;14.30;99.90;;;;;;5013970;28;20906;-76
2022/05/23 03:52:44;;;;;;;3.70;3.13;;;14.40;99.90;;;;;;5013955;28;20430;-76
2022/05/23 03:55:09;;;;;;;5.97;3.27;;;14.40;99.90;;;;;;5013965;28;20402;-76
2022/05/23 03:57:35;;;;;;;4.10;3.80;;;14.50;99.90;;;;;;5013473;28;20502;-76
2022/05/23 04:00:01;;;;;;;3.60;3.30;;;14.50;99.90;;;;;;5013976;28;20215;-76
2022/05/23 04:02:27;;;;;;;4.50;3.47;;;14.60;99.90;;;;;;5013821;28;20742;-76
2022/05/23 04:04:52;;;;;;;3.00;2.77;;;14.60;99.90;;;;;;5014369;28;20578;-77
2022/05/23 04:07:18;;;;;;;7.70;3.13;;;14.70;99.90;;;;;;5014482;28;20406;-76
2022/05/23 04:09:43;;;;;;;5.00;2.90;;;14.70;99.90;;;;;;5014195;28;20178;-77
2022/05/23 04:12:09;;;;;;;4.63;2.87;;;15.10;99.90;;;;;;5014121;28;20203;-76
2022/05/23 04:14:35;;;;;;;2.80;2.60;;;15.30;99.90;;;;;;5014111;28;20171;-77
2022/05/23 04:17:00;;;;;;;3.47;2.60;;;15.50;99.90;;;;;;5014249;28;20260;-77
2022/05/23 04:19:26;;;;;;;2.30;2.10;;;15.60;99.90;;;;;;5013975;28;20206;-77
2022/05/23 04:21:52;;;;;;;5.90;3.00;;;15.80;99.90;;;;;;5013590;28;20206;-78
2022/05/23 04:24:18;;;;;;;6.63;2.50;;;15.90;99.90;;;;;;5014095;28;20185;-77
2022/05/23 04:26:44;;;;;;;7.33;2.80;;;15.90;99.90;;;;;;5014019;28;20500;-76
2022/05/23 04:29:10;;;;;;;4.47;2.47;;;15.80;99.90;;;;;;5013106;28;20439;-76
2022/05/23 04:31:36;;;;;;;3.87;2.80;;;15.80;99.90;;;;;;5013937;28;20508;-76
2022/05/23 04:36:50;;;;;;;3.57;2.57;;;15.60;99.90;;;;;;5014368;28;20452;-76
2022/05/23 04:39:16;;;;;;;6.40;3.63;;;15.50;99.90;;;;;;5014106;28;20446;-77
2022/05/23 04:41:42;;;;;;;8.40;3.50;;;15.50;99.90;;;;;;5013006;28;20457;-76
2022/05/23 04:44:07;;;;;;;3.20;3.00;;;15.40;99.90;;;;;;5014553;28;20446;-77
2022/05/23 04:46:33;;;;;;;6.83;2.87;;;15.40;99.90;;;;;;5014376;28;20217;-76
2022/05/23 04:51:43;;;;;;;5.77;2.73;;;15.40;99.90;;;;;;5013228;28;20216;-77
2022/05/23 04:54:09;;;;;;;8.43;3.00;;;15.50;99.90;;;;;;5013292;28;20422;-76
2022/05/23 04:56:37;;;;;;;6.40;3.00;;;15.50;99.90;;;;;;5013135;28;20209;-75
2022/05/23 04:59:02;;;;;;;3.27;2.97;;;15.50;99.90;;;;;;5012908;28;20171;-74
2022/05/23 05:01:28;;;;;;;7.33;2.80;;;15.40;99.90;;;;;;5012406;28;20992;-74
2022/05/23 05:03:55;;;;;;;6.03;3.57;;;15.30;99.90;;;;;;5012679;28;20178;-75
2022/05/23 05:06:22;;;;;;;11.40;3.63;;;15.10;99.90;;;;;;5013052;28;20198;-75
2022/05/23 05:08:48;;;;;;;4.60;4.07;;;15.00;99.90;;;;;;5012468;28;20894;-72
2022/05/23 05:11:14;;;;;;;5.60;3.70;;;15.00;99.90;;;;;;5011039;28;20468;-73
2022/05/23 05:13:40;;;;;;;3.90;3.60;;;14.90;99.90;;;;;;5011989;28;20416;-74
2022/05/23 05:16:07;;;;;;;16.10;4.57;;;14.90;99.90;;;;;;5012271;28;20544;-74
2022/05/23 05:18:33;;;;;;;9.80;3.87;;;14.90;99.90;;;;;;5012691;28;20171;-72
2022/05/23 05:21:04;;;;;;;7.07;3.20;;;14.90;99.90;;;;;;5011547;28;20437;-73
2022/05/23 05:23:30;;;;;;;13.07;3.93;;;14.90;99.90;;;;;;5011635;28;20524;-70
2022/05/23 05:25:55;;;;;;;7.57;3.97;;;14.90;99.90;;;;;;5012173;28;20856;-72
2022/05/23 05:28:21;;;;;;;4.57;3.90;;;14.90;99.90;;;;;;5012420;28;20597;-72
2022/05/23 05:31:05;;;;;;;4.73;4.10;;;15.00;99.90;;;;;;5011802;28;20736;-71
2022/05/23 05:33:37;;;;;;;5.87;3.77;;;14.90;99.90;;;;;;5012383;28;20274;-71
2022/05/23 05:36:11;;;;;;;7.40;6.00;;;15.00;99.90;;;;;;5012419;28;20410;-71
2022/05/23 05:38:43;;;;;;;6.87;3.87;;;15.00;99.90;;;;;;5012832;28;20416;-71
2022/05/23 05:41:14;;;;;;;8.93;3.30;;;15.00;99.90;;;;;;5011979;28;20809;-71
2022/05/23 05:43:46;;;;;;;6.03;4.50;;;15.10;99.90;;;;;;5012427;28;20406;-71
2022/05/23 05:46:17;;;;;;;4.83;4.27;;;15.10;99.90;;;;;;5012120;28;20910;-72
2022/05/23 05:48:45;;;;;;;4.30;4.00;;;15.10;99.90;;;;;;5012294;28;20413;-72
2022/05/23 05:51:13;;;;;;;6.30;4.33;;;15.20;99.90;;;;;;5011563;28;20465;-73
2022/05/23 05:53:39;;;;;;;9.40;4.13;;;15.20;99.90;;;;;;5011436;28;20430;-70
2022/05/23 05:56:06;;;;;;;8.43;3.63;;;15.20;99.90;;;;;;5011977;28;20499;-72
2022/05/23 05:58:33;;;;;;;3.87;3.57;;;15.20;99.90;;;;;;5012236;28;20441;-72
2022/05/23 06:00:59;;;;;;;4.63;4.03;;;15.20;99.90;;;;;;5012084;28;20448;-72
2022/05/23 06:03:24;;;;;;;7.10;4.90;;;15.30;99.90;;;;;;5012069;28;20429;-72
2022/05/23 06:11:24;;;;;;;5.07;4.03;;;15.60;99.90;;;;;;5011584;28;20591;-72
2022/05/23 06:14:01;;;;;;;8.60;4.03;;;15.80;99.90;;;;;;5012270;28;20428;-73
2022/05/23 06:16:29;;;;;;;4.37;3.97;;;16.00;99.90;;;;;;5012119;28;20424;-72
2022/05/23 06:18:56;;;;;;;7.53;4.40;;;16.10;99.90;;;;;;5012554;28;20410;-71
2022/05/23 06:21:23;;;;;;;5.40;4.40;;;16.30;99.90;;;;;;5015805;28;20433;-71
2022/05/23 06:23:49;;;;;;;10.53;5.60;;;16.30;99.90;;;;;;5015811;28;20776;-72
2022/05/23 06:26:16;;;;;;;3.90;3.60;;;16.40;99.90;;;;;;5015878;28;20792;-72
2022/05/23 06:28:45;;;;;;;6.00;3.93;;;16.60;99.90;;;;;;5015687;28;20484;-71
2022/05/23 06:31:12;;;;;;;6.80;5.90;;;16.70;99.90;;;;;;5015501;28;21050;-71
2022/05/23 06:33:38;;;;;;;5.93;3.90;;;16.80;99.90;;;;;;5016047;28;20425;-72
2022/05/23 06:36:05;;;;;;;4.00;3.10;;;17.00;99.90;;;;;;5015544;28;20448;-72
2022/05/23 06:38:34;;;;;;;6.50;3.73;;;17.10;99.90;;;;;;5015558;28;20417;-72
2022/05/23 06:41:00;;;;;;;3.60;3.07;;;17.30;99.90;;;;;;5015055;28;20448;-72
2022/05/23 06:43:26;;;;;;;3.47;3.17;;;17.40;99.90;;;;;;5013966;28;20841;-72
2022/05/23 06:45:52;;;;;;;6.93;3.37;;;17.70;99.90;;;;;;5015055;28;20425;-72
2022/05/23 06:48:17;;;;;;;4.00;3.70;;;17.80;99.90;;;;;;5015025;28;20178;-72
2022/05/23 06:50:49;;;;;;;13.80;4.40;;;17.80;99.90;;;;;;5014929;28;20304;-72
2022/05/23 06:53:15;;;;;;;5.70;3.07;;;17.90;99.90;;;;;;5015493;28;20665;-72
2022/05/23 06:55:41;;;;;;;7.03;3.00;;;17.90;99.90;;;;;;5015481;28;20421;-72
2022/05/23 06:58:06;;;;;;;6.53;2.80;;;18.00;99.90;;;;;;5015463;28;20182;-72
2022/05/23 07:00:32;;;;;;;3.27;3.07;;;18.10;99.90;;;;;;5014826;28;20602;-70
2022/05/23 07:02:58;;;;;;;10.20;3.87;;;18.20;99.90;;;;;;5015401;28;20185;-72
2022/05/23 07:13:36;;;;;;;5.53;2.73;;;19.60;99.90;;;;;;5015260;28;20416;-72
2022/05/23 07:16:02;;;;;;;5.83;2.87;;;19.60;99.90;;;;;;5014871;28;20782;-73
2022/05/23 07:18:30;;;;;;;3.77;2.90;;;19.70;99.90;;;;;;5014644;28;20197;-73
2022/05/23 07:20:55;;;;;;;3.77;3.00;;;19.80;99.90;;;;;;5013211;28;20520;-73
2022/05/23 07:23:21;;;;;;;4.10;2.97;;;19.70;99.90;;;;;;5014666;28;20509;-73
2022/05/23 07:25:46;;;;;;;2.73;2.53;;;19.70;99.90;;;;;;5014867;28;20182;-73
2022/05/23 07:28:12;;;;;;;4.07;3.27;;;19.70;99.90;;;;;;5014534;28;20186;-72
2022/05/23 07:30:38;;;;;;;3.97;2.80;;;19.60;99.90;;;;;;5011913;28;20257;-70
2022/05/23 07:33:03;;;;;;;2.83;2.53;;;19.50;99.90;;;;;;5014129;28;20273;-71
2022/05/23 07:35:29;;;;;;;2.73;2.37;;;19.40;99.90;;;;;;5014008;28;20241;-73
2022/05/23 07:37:54;;;;;;;2.87;2.67;;;19.30;99.90;;;;;;5014059;28;20174;-72
2022/05/23 07:40:20;;;;;;;3.63;3.33;;;19.40;99.90;;;;;;5013597;28;20175;-73
2022/05/23 07:42:47;;;;;;;2.90;2.47;;;19.40;99.90;;;;;;5012531;28;20225;-72
2022/05/23 07:45:13;;;;;;;3.03;2.83;;;19.60;99.90;;;;;;5013683;28;20409;-73
2022/05/23 07:47:39;;;;;;;2.67;2.07;;;19.60;99.90;;;;;;5013893;28;20410;-73
2022/05/23 07:50:07;;;;;;;2.60;2.50;;;19.80;99.90;;;;;;5013702;28;20421;-73
2022/05/23 07:52:33;;;;;;;4.13;2.53;;;19.80;99.90;;;;;;5013341;28;20210;-72
2022/05/23 08:02:52;;;;;;;4.50;2.80;;;19.90;99.90;;;;;;5013447;28;20201;-72
2022/05/23 08:05:18;;;;;;;2.63;2.43;;;20.00;99.90;;;;;;5013264;28;20417;-73
2022/05/23 08:07:44;;;;;;;3.93;2.40;;;20.30;99.90;;;;;;5013775;28;20171;-73
2022/05/23 08:10:10;;;;;;;3.60;2.37;;;21.00;99.90;;;;;;5013405;28;20225;-73
2022/05/23 08:12:36;;;;;;;5.23;2.33;;;21.30;99.90;;;;;;5013109;28;20190;-73
2022/05/23 08:15:04;;;;;;;6.30;2.13;;;21.70;99.90;;;;;;5013408;28;20960;-73
2022/05/23 08:17:29;;;;;;;2.17;2.07;;;21.50;99.90;;;;;;5013358;28;20479;-73
2022/05/23 08:19:55;;;;;;;2.83;2.47;;;21.40;99.90;;;;;;5013262;28;20417;-73
2022/05/23 08:22:22;;;;;;;4.03;2.77;;;21.30;99.90;;;;;;5012677;28;20629;-71
2022/05/23 08:24:48;;;;;;;4.80;4.10;;;21.00;99.90;;;;;;5013291;28;20730;-73
2022/05/23 08:27:14;;;;;;;4.33;2.60;;;20.70;99.90;;;;;;5013236;28;20512;-72
2022/05/23 08:29:40;;;;;;;4.50;2.50;;;20.60;99.90;;;;;;5013057;28;20439;-73
2022/05/23 08:32:09;;;;;;;2.63;2.37;;;20.50;99.90;;;;;;5012598;28;20703;-73
2022/05/23 08:34:35;;;;;;;2.30;2.20;;;20.40;99.90;;;;;;5013239;28;20167;-73
2022/05/23 08:37:01;;;;;;;3.63;2.80;;;20.40;99.90;;;;;;5012839;28;20497;-71
2022/05/23 08:39:26;;;;;;;4.40;2.67;;;20.40;99.90;;;;;;5012597;28;20175;-72
2022/05/23 08:41:53;;;;;;;5.00;2.30;;;20.50;99.90;;;;;;5012455;28;20205;-73
2022/05/23 08:44:44;;;;;;;3.73;2.00;;;20.50;99.90;;;;;;5012681;28;20202;-71
2022/05/23 08:47:16;;;;;;;2.70;2.33;;;20.60;99.90;;;;;;5012594;28;20444;-72
2022/05/23 08:50:08;;;;;;;7.70;3.03;;;20.50;99.90;;;;;;5012692;28;20501;-72
2022/05/23 08:52:57;;;;;;;7.43;3.20;;;20.50;99.90;;;;;;5012235;28;20492;-73
2022/05/23 08:55:31;;;;;;;3.20;2.90;;;20.50;99.90;;;;;;5012431;28;20413;-71
2022/05/23 08:58:32;;;;;;;5.83;2.77;;;20.50;99.90;;;;;;5012720;28;20420;-73
2022/05/23 09:01:23;;;;;;;6.63;2.80;;;20.50;99.90;;;;;;5008835;28;20460;-72
2022/05/23 09:03:52;;;;;;;3.07;2.80;;;20.50;99.90;;;;;;5012474;28;20493;-72
2022/05/23 09:06:26;;;;;;;3.40;3.10;;;20.50;99.90;;;;;;5012102;28;20637;-73
2022/05/23 09:08:57;;;;;;;5.60;3.13;;;20.60;99.90;;;;;;5012372;28;20946;-73
2022/05/23 09:11:34;;;;;;;3.30;2.80;;;20.70;99.90;;;;;;5011713;28;20465;-73
2022/05/23 09:14:00;;;;;;;4.53;4.23;;;20.80;99.90;;;;;;5012325;28;20902;-73
2022/05/23 09:16:35;;;;;;;5.53;5.03;;;20.90;99.90;;;;;;5012066;28;20861;-73
2022/05/23 09:19:10;;;;;;;3.43;3.23;;;21.00;99.90;;;;;;5012222;28;20505;-73
2022/05/23 09:24:19;;;;;;;5.07;3.10;;;21.20;99.90;;;;;;5012859;28;20436;-73
2022/05/23 09:26:46;;;;;;;6.30;2.90;;;21.10;99.90;;;;;;5013175;28;20414;-73
2022/05/23 09:29:12;;;;;;;5.43;2.70;;;21.20;99.90;;;;;;5012693;28;20293;-73
2022/05/23 09:31:48;;;;;;;10.13;3.70;;;21.10;99.90;;;;;;5012071;28;20480;-72
2022/05/23 09:34:33;;;;;;;5.50;2.33;;;21.10;99.90;;;;;;5011991;28;20174;-73
2022/05/23 09:37:02;;;;;;;3.73;2.50;;;21.20;99.90;;;;;;5010067;28;20421;-73
2022/05/23 09:39:29;;;;;;;2.77;2.57;;;21.20;99.90;;;;;;5012148;28;20455;-72
2022/05/23 09:47:44;;;;;;;2.77;2.57;;;21.50;99.90;;;;;;5012686;28;20413;-72
2022/05/23 09:50:12;;;;;;;5.03;2.50;;;21.50;99.90;;;;;;5011813;28;20405;-72
2022/05/23 09:52:46;;;;;;;2.77;2.57;;;21.70;99.90;;;;;;5010282;28;20454;-73
2022/05/23 09:55:14;;;;;;;2.77;2.57;;;21.90;99.90;;;;;;5010384;28;20516;-72
2022/05/23 09:57:49;;;;;;;3.23;2.77;;;22.10;99.90;;;;;;4992133;28;20419;-73
2022/05/23 10:00:17;;;;;;;2.90;2.70;;;22.20;99.90;;;;;;5002787;28;20932;-73
2022/05/23 10:02:57;;;;;;;3.20;2.90;;;22.40;99.90;;;;;;5011241;28;20488;-73
2022/05/23 10:05:34;;;;;;;4.50;2.90;;;22.90;99.90;;;;;;5010813;28;20449;-73
2022/05/23 10:08:04;;;;;;;5.80;2.80;;;23.30;99.90;;;;;;5011594;28;20406;-73
2022/05/23 10:10:33;;;;;;;5.70;3.00;;;23.40;99.90;;;;;;5010774;28;20969;-72
2022/05/23 10:13:28;;;;;;;4.47;3.07;;;23.50;99.90;;;;;;5011511;28;20921;-72
2022/05/23 10:16:00;;;;;;;5.53;2.70;;;23.30;99.90;;;;;;5011257;28;20429;-73
2022/05/23 10:18:26;;;;;;;3.53;2.57;;;23.30;99.90;;;;;;5011285;28;20411;-73
2022/05/23 10:20:52;;;;;;;5.33;2.97;;;23.30;99.90;;;;;;5010783;28;20509;-73
2022/05/23 10:23:25;;;;;;;3.40;2.73;;;23.20;99.90;;;;;;5011379;28;20210;-74
2022/05/23 10:26:13;;;;;;;4.70;3.57;;;23.10;99.90;;;;;;5011327;28;20508;-73
2022/05/23 10:29:02;;;;;;;3.37;2.57;;;23.00;99.90;;;;;;5011477;28;20445;-74
2022/05/23 10:31:48;;;;;;;5.83;2.80;;;23.10;99.90;;;;;;5010407;28;20504;-73
2022/05/23 10:34:39;;;;;;;4.40;2.20;;;23.20;99.90;;;;;;5011062;28;20475;-72
2022/05/23 10:37:15;;;;;;;2.50;2.20;;;23.00;99.90;;;;;;5011420;28;20972;-74
2022/05/23 10:42:38;;;;;;;6.53;3.07;;;23.00;99.90;;;;;;4991700;28;20429;-73
2022/05/23 10:45:42;;;;;;;4.50;2.83;;;23.10;99.90;;;;;;4999395;28;20425;-72
2022/05/23 10:48:10;;;;;;;3.03;2.70;;;23.20;99.90;;;;;;4967784;28;20436;-73
2022/05/23 10:50:58;;;;;;;2.43;2.23;;;23.10;99.90;;;;;;5010677;28;21201;-72
2022/05/23 10:53:44;;;;;;;3.07;2.70;;;23.10;99.90;;;;;;5007912;28;20420;-72
2022/05/23 10:56:20;;;;;;;4.23;2.50;;;23.00;99.90;;;;;;4997425;28;20520;-74
2022/05/23 10:59:06;;;;;;;4.00;2.77;;;23.00;99.90;;;;;;5011299;28;20404;-72
2022/05/23 11:01:35;;;;;;;4.30;2.70;;;22.80;99.90;;;;;;5010349;28;20437;-73
2022/05/23 11:04:22;;;;;;;4.13;2.80;;;22.80;99.90;;;;;;5010749;28;20517;-72
2022/05/23 11:07:02;;;;;;;4.10;3.00;;;22.60;99.90;;;;;;5011400;28;20432;-73
2022/05/23 11:09:56;;;;;;;2.87;2.67;;;22.40;99.90;;;;;;5014461;28;20455;-73
2022/05/23 11:12:30;;;;;;;5.40;2.53;;;22.30;99.90;;;;;;5013553;28;20484;-73
2022/05/23 11:15:11;;;;;;;5.70;3.03;;;22.10;99.90;;;;;;5014444;28;20539;-71
2022/05/23 11:17:45;;;;;;;5.80;2.90;;;22.00;99.90;;;;;;5014593;28;20437;-74
2022/05/23 11:20:31;;;;;;;3.17;2.83;;;21.80;99.90;;;;;;5014381;28;20405;-73
2022/05/23 11:23:18;;;;;;;4.87;3.23;;;21.60;99.90;;;;;;5013396;28;20442;-73
2022/05/23 11:25:47;;;;;;;4.30;2.80;;;21.40;99.90;;;;;;5014450;28;20444;-73
2022/05/23 11:34:33;;;;;;;6.53;3.97;;;21.00;99.90;;;;;;5001160;28;20428;-72
2022/05/23 11:39:48;;;;;;;5.87;4.10;;;20.50;99.90;;;;;;5013947;28;20773;-71
2022/05/23 11:42:35;;;;;;;4.53;4.13;;;20.40;99.90;;;;;;5013471;28;20468;-72
2022/05/23 11:47:53;;;;;;;6.47;5.27;;;19.90;99.90;;;;;;5014257;28;20417;-72
2022/05/23 11:50:30;;;;;;;6.27;4.77;;;19.60;99.90;;;;;;5013688;28;20421;-72
2022/05/23 11:53:19;;;;;;;7.93;4.23;;;19.40;99.90;;;;;;5013383;28;20812;-72
2022/05/23 11:55:50;;;;;;;8.33;3.80;;;19.20;99.90;;;;;;5013516;28;20429;-71
2022/05/23 11:58:22;;;;;;;8.20;3.20;;;18.90;99.90;;;;;;5013361;28;20410;-71
2022/05/23 12:01:15;;;;;;;8.00;3.20;;;18.80;99.90;;;;;;5013545;28;20429;-72
2022/05/23 12:03:50;;;;;;;5.63;4.00;;;18.70;99.90;;;;;;5013010;28;20863;-71
2022/05/23 12:06:18;;;;;;;6.37;2.90;;;18.60;99.90;;;;;;5013637;28;20412;-71
2022/05/23 12:09:01;;;;;;;7.63;3.20;;;18.50;99.90;;;;;;5013501;28;20425;-70
2022/05/23 12:11:30;;;;;;;6.00;3.40;;;18.40;99.90;;;;;;5012704;28;20468;-73
2022/05/23 12:14:14;;;;;;;5.37;3.77;;;18.20;99.90;;;;;;5013162;28;20505;-72
2022/05/23 12:16:57;;;;;;;13.97;3.40;;;18.10;99.90;;;;;;5013069;28;20398;-71
2022/05/23 12:19:40;;;;;;;12.60;2.93;;;17.90;99.90;;;;;;5013066;28;20415;-72
2022/05/23 12:22:39;;;;;;;10.43;4.00;;;17.80;99.90;;;;;;5012914;28;20445;-72
2022/05/23 12:25:07;;;;;;;5.37;3.90;;;17.70;99.90;;;;;;5013992;28;20422;-72
2022/05/23 12:27:45;;;;;;;10.20;4.40;;;17.60;99.90;;;;;;5012789;28;20512;-73
2022/05/23 12:30:22;;;;;;;7.10;4.60;;;17.50;99.90;;;;;;5012929;28;20785;-72
2022/05/23 12:32:50;;;;;;;13.40;5.23;;;17.50;99.90;;;;;;5011233;28;20457;-73
2022/05/23 12:35:19;;;;;;;8.40;4.50;;;17.50;99.90;;;;;;5013023;28;20418;-72
2022/05/23 12:37:58;;;;;;;6.00;3.50;;;17.50;99.90;;;;;;5012749;28;20859;-73
2022/05/23 12:40:30;;;;;;;5.10;3.33;;;17.60;99.90;;;;;;5012556;28;20432;-71
2022/05/23 12:43:25;;;;;;;5.67;4.37;;;17.60;99.90;;;;;;5012438;28;20532;-72
2022/05/23 12:46:05;;;;;;;18.00;4.50;;;17.60;99.90;;;;;;5012838;28;20598;-72
2022/05/23 12:48:55;;;;;;;9.60;3.00;;;17.80;99.90;;;;;;5011301;28;20425;-71
2022/05/23 12:52:06;;;;;;;9.43;3.03;;;17.90;99.90;;;;;;5002045;28;20987;-72
2022/05/23 12:54:52;;;;;;;3.93;3.07;;;18.00;99.90;;;;;;4941763;29;20507;-74
2022/05/23 12:57:49;;;;;;;5.43;2.90;;;18.20;99.90;;;;;;5007041;28;20463;-73
2022/05/23 13:00:27;;;;;;;3.63;2.93;;;18.50;99.90;;;;;;5000031;28;20551;-72
2022/05/23 13:03:08;;;;;;;4.83;3.20;;;18.70;99.90;;;;;;5010873;28;20453;-72
2022/05/23 13:05:39;;;;;;;8.50;3.50;;;18.90;99.90;;;;;;5010932;28;20520;-72
2022/05/23 13:08:20;;;;;;;4.47;2.67;;;19.10;99.90;;;;;;5011491;28;20455;-72
2022/05/23 13:10:56;;;;;;;6.30;2.67;;;19.30;99.90;;;;;;5009864;28;20463;-72
2022/05/23 13:13:31;;;;;;;5.83;2.97;;;19.60;99.90;;;;;;5011089;28;20465;-73
2022/05/23 13:16:12;;;;;;;6.47;3.30;;;19.80;99.90;;;;;;5011351;28;20436;-73
2022/05/23 13:24:13;;;;;;;6.23;2.57;;;20.20;99.90;;;;;;5003506;28;20452;-72
2022/05/23 13:26:39;;;;;;;12.17;2.83;;;20.30;99.90;;;;;;5011213;28;20425;-72
2022/05/23 13:29:10;;;;;;;7.30;3.10;;;20.40;99.90;;;;;;5011010;28;20902;-72
2022/05/23 13:31:35;;;;;;;6.70;2.57;;;20.70;99.90;;;;;;5011656;28;20309;-72
2022/05/23 13:34:01;;;;;;;6.60;3.70;;;20.80;99.90;;;;;;5011844;28;20505;-72
2022/05/23 13:36:41;;;;;;;5.60;3.00;;;20.90;99.90;;;;;;5011552;28;20232;-72
2022/05/23 13:39:14;;;;;;;7.63;2.40;;;21.10;99.90;;;;;;5012479;28;20675;-73
2022/05/23 13:41:40;;;;;;;9.33;2.40;;;21.30;99.90;;;;;;5011556;28;20949;-72
2022/05/23 13:44:05;;;;;;;9.17;2.30;;;21.40;99.90;;;;;;5012166;28;20452;-73
2022/05/23 13:46:37;;;;;;;10.50;2.97;;;21.60;99.90;;;;;;5011557;28;20461;-73
2022/05/23 13:49:18;;;;;;;10.43;2.50;;;21.60;99.90;;;;;;5012087;28;20527;-73
2022/05/23 13:51:53;;;;;;;2.60;2.27;;;21.80;99.90;;;;;;5011767;28;20468;-73
2022/05/23 13:54:24;;;;;;;4.97;2.93;;;22.00;99.90;;;;;;5012805;28;20420;-72
2022/05/23 13:57:00;;;;;;;5.07;2.40;;;22.10;99.90;;;;;;5013986;28;20985;-73
2022/05/23 13:59:33;;;;;;;5.67;2.53;;;22.20;99.90;;;;;;4995958;28;20443;-73
2022/05/23 14:02:07;;;;;;;5.03;1.70;;;22.20;99.90;;;;;;5011461;28;20434;-72
2022/05/23 14:04:37;;;;;;;11.23;2.70;;;22.40;99.90;;;;;;5010488;28;20429;-73
2022/05/23 14:07:09;;;;;;;5.30;2.60;;;22.50;99.90;;;;;;5011967;28;21021;-72
2022/05/23 14:09:45;;;;;;;5.10;2.87;;;22.60;99.90;;;;;;5011704;28;20418;-73
2022/05/23 14:12:14;;;;;;;6.07;2.43;;;22.60;99.90;;;;;;5011301;28;20472;-72
2022/05/23 14:14:44;;;;;;;3.60;2.00;;;22.70;99.90;;;;;;5011343;28;20914;-73
2022/05/23 14:17:32;;;;;;;6.87;2.80;;;22.80;99.90;;;;;;5011348;28;20501;-72
2022/05/23 14:20:28;;;;;;;16.57;2.40;;;22.90;99.90;;;;;;5011619;28;20413;-73
2022/05/23 14:23:19;;;;;;;6.70;2.70;;;23.00;99.90;;;;;;5010997;28;20437;-73
2022/05/23 14:25:47;;;;;;;8.90;2.83;;;23.20;99.90;;;;;;5011355;28;20414;-73
2022/05/23 14:28:20;;;;;;;5.30;2.07;;;23.20;99.90;;;;;;5011193;28;20409;-72
2022/05/23 14:30:51;;;;;;;7.97;2.63;;;23.20;99.90;;;;;;5011048;28;20856;-72
2022/05/23 14:33:37;;;;;;;6.70;2.63;;;23.20;99.90;;;;;;5011111;28;20432;-72
2022/05/23 14:36:20;;;;;;;7.73;3.73;;;23.20;99.90;;;;;;5011231;28;20449;-73
2022/05/23 14:38:56;;;;;;;8.43;2.60;;;23.30;99.90;;;;;;5011822;28;20397;-73
2022/05/23 14:41:32;;;;;;;3.27;1.90;;;23.40;99.90;;;;;;5013618;28;20424;-73
2022/05/23 14:44:22;;;;;;;3.27;2.50;;;23.40;99.90;;;;;;4998004;28;20457;-73
2022/05/23 14:47:19;;;;;;;8.43;2.77;;;23.40;99.90;;;;;;5014770;28;20779;-73
2022/05/23 14:50:06;;;;;;;9.97;3.07;;;23.40;99.90;;;;;;5014556;28;20457;-73
2022/05/23 14:52:46;;;;;;;3.67;2.90;;;23.40;99.90;;;;;;5014022;28;20471;-74
2022/05/23 14:55:18;;;;;;;3.50;1.93;;;23.40;99.90;;;;;;5014734;28;20488;-74
2022/05/23 15:00:43;;;;;;;2.57;2.23;;;23.40;99.90;;;;;;5014594;28;20413;-71
2022/05/23 15:03:26;;;;;;;3.23;2.80;;;23.40;99.90;;;;;;5014501;28;20468;-72
2022/05/23 15:05:53;;;;;;;3.70;2.40;;;23.40;99.90;;;;;;5014401;28;20425;-72
2022/05/23 15:08:21;;;;;;;5.90;3.00;;;23.50;99.90;;;;;;5014241;28;20562;-73
2022/05/23 15:10:47;;;;;;;7.87;2.47;;;23.50;99.90;;;;;;5014005;28;20526;-73
2022/05/23 15:13:13;;;;;;;8.20;2.43;;;23.60;99.90;;;;;;5014060;28;20522;-73
2022/05/23 15:15:40;;;;;;;7.07;3.17;;;23.60;99.90;;;;;;5014156;28;20421;-73
2022/05/23 15:18:06;;;;;;;4.10;2.40;;;23.70;99.90;;;;;;5014514;28;20413;-73
2022/05/23 15:20:32;;;;;;;7.00;2.63;;;23.60;99.90;;;;;;5013849;28;20406;-72
2022/05/23 15:22:58;;;;;;;9.13;2.30;;;23.60;99.90;;;;;;5013924;28;20483;-73
2022/05/23 15:25:25;;;;;;;6.53;3.27;;;23.60;99.90;;;;;;5013924;28;20713;-73
2022/05/23 15:27:51;;;;;;;5.43;3.03;;;23.50;99.90;;;;;;5014217;28;20444;-73
2022/05/23 15:30:20;;;;;;;9.37;2.57;;;23.40;99.90;;;;;;5013809;28;20418;-73
2022/05/23 15:32:47;;;;;;;8.87;3.03;;;23.30;99.90;;;;;;5012027;28;20467;-72
2022/05/23 15:35:14;;;;;;;3.53;2.20;;;23.30;99.90;;;;;;5013978;28;20422;-73
2022/05/23 15:37:40;;;;;;;6.23;3.07;;;23.30;99.90;;;;;;5012634;28;20406;-73
2022/05/23 15:40:07;;;;;;;8.87;2.60;;;23.30;99.90;;;;;;5012790;28;20505;-73
2022/05/23 15:42:33;;;;;;;6.93;2.57;;;23.20;99.90;;;;;;5013312;28;20206;-73
2022/05/23 15:45:09;;;;;;;2.83;2.60;;;23.20;99.90;;;;;;5013603;28;20433;-73